sensor_id;sensor_type;location;lat;lon;timestamp;P1;durP1;ratioP1;P2;durP2;ratioP2
43756;SDS011;73222;41.866;12.462;2024-02-21T00:01:49;10.27;;;5.72;;
43756;SDS011;73222;41.866;12.462;2024-02-21T00:04:15;8.02;;;4.93;;
43756;SDS011;73222;41.866;12.462;2024-02-21T00:06:41;9.18;;;5.38;;
43756;SDS011;73222;41.866;12.462;2024-02-21T00:09:06;9.32;;;5.53;;
43756;SDS011;73222;41.866;12.462;2024-02-21T00:11:34;8.85;;;5.47;;
43756;SDS011;73222;41.866;12.462;2024-02-21T00:14:00;10.02;;;5.18;;
43756;SDS011;73222;41.866;12.462;2024-02-21T00:16:25;8.85;;;5.35;;
43756;SDS011;73222;41.866;12.462;2024-02-21T00:18:51;13.05;;;6.10;;
43756;SDS011;73222;41.866;12.462;2024-02-21T00:21:16;11.32;;;6.65;;
43756;SDS011;73222;41.866;12.462;2024-02-21T00:23:43;9.50;;;6.10;;
43756;SDS011;73222;41.866;12.462;2024-02-21T00:26:12;11.80;;;6.72;;
43756;SDS011;73222;41.866;12.462;2024-02-21T00:28:38;9.82;;;5.30;;
43756;SDS011;73222;41.866;12.462;2024-02-21T00:31:04;9.70;;;5.68;;
43756;SDS011;73222;41.866;12.462;2024-02-21T00:33:30;8.30;;;6.32;;
43756;SDS011;73222;41.866;12.462;2024-02-21T00:35:55;8.40;;;5.13;;
43756;SDS011;73222;41.866;12.462;2024-02-21T00:38:21;8.13;;;5.20;;
43756;SDS011;73222;41.866;12.462;2024-02-21T00:40:46;7.75;;;5.30;;
43756;SDS011;73222;41.866;12.462;2024-02-21T00:43:11;6.05;;;4.60;;
43756;SDS011;73222;41.866;12.462;2024-02-21T00:45:37;8.90;;;5.25;;
43756;SDS011;73222;41.866;12.462;2024-02-21T00:48:02;6.88;;;4.50;;
43756;SDS011;73222;41.866;12.462;2024-02-21T00:50:29;7.15;;;4.75;;
43756;SDS011;73222;41.866;12.462;2024-02-21T00:52:54;7.55;;;4.72;;
43756;SDS011;73222;41.866;12.462;2024-02-21T00:55:20;6.85;;;4.53;;
43756;SDS011;73222;41.866;12.462;2024-02-21T00:57:45;9.65;;;5.30;;
43756;SDS011;73222;41.866;12.462;2024-02-21T01:00:11;9.13;;;5.40;;
43756;SDS011;73222;41.866;12.462;2024-02-21T01:02:36;8.45;;;4.82;;
43756;SDS011;73222;41.866;12.462;2024-02-21T01:05:02;8.07;;;4.68;;
43756;SDS011;73222;41.866;12.462;2024-02-21T01:07:27;6.95;;;4.00;;
43756;SDS011;73222;41.866;12.462;2024-02-21T01:09:53;8.32;;;4.70;;
43756;SDS011;73222;41.866;12.462;2024-02-21T01:12:18;7.53;;;4.75;;
43756;SDS011;73222;41.866;12.462;2024-02-21T01:14:44;9.00;;;5.18;;
43756;SDS011;73222;41.866;12.462;2024-02-21T01:17:11;7.63;;;5.13;;
43756;SDS011;73222;41.866;12.462;2024-02-21T01:19:36;5.88;;;4.18;;
43756;SDS011;73222;41.866;12.462;2024-02-21T01:22:02;7.53;;;4.60;;
43756;SDS011;73222;41.866;12.462;2024-02-21T01:24:27;6.90;;;4.75;;
43756;SDS011;73222;41.866;12.462;2024-02-21T01:26:53;5.43;;;3.55;;
43756;SDS011;73222;41.866;12.462;2024-02-21T01:29:18;6.97;;;4.47;;
43756;SDS011;73222;41.866;12.462;2024-02-21T01:31:44;5.15;;;3.55;;
43756;SDS011;73222;41.866;12.462;2024-02-21T01:34:09;5.53;;;3.50;;
43756;SDS011;73222;41.866;12.462;2024-02-21T01:36:34;6.80;;;3.85;;
43756;SDS011;73222;41.866;12.462;2024-02-21T01:39:00;6.70;;;3.55;;
43756;SDS011;73222;41.866;12.462;2024-02-21T01:41:25;4.05;;;2.72;;
43756;SDS011;73222;41.866;12.462;2024-02-21T01:43:50;6.00;;;3.35;;
43756;SDS011;73222;41.866;12.462;2024-02-21T01:46:16;5.07;;;2.85;;
43756;SDS011;73222;41.866;12.462;2024-02-21T01:48:41;5.47;;;3.50;;
43756;SDS011;73222;41.866;12.462;2024-02-21T01:51:07;4.95;;;3.38;;
43756;SDS011;73222;41.866;12.462;2024-02-21T01:53:34;6.03;;;3.13;;
43756;SDS011;73222;41.866;12.462;2024-02-21T01:56:02;5.80;;;3.53;;
43756;SDS011;73222;41.866;12.462;2024-02-21T01:58:30;4.82;;;2.97;;
43756;SDS011;73222;41.866;12.462;2024-02-21T02:00:56;4.35;;;3.10;;
43756;SDS011;73222;41.866;12.462;2024-02-21T02:03:22;5.07;;;3.40;;
43756;SDS011;73222;41.866;12.462;2024-02-21T02:05:49;5.88;;;3.00;;
43756;SDS011;73222;41.866;12.462;2024-02-21T02:08:16;4.43;;;3.20;;
43756;SDS011;73222;41.866;12.462;2024-02-21T02:10:42;6.93;;;5.10;;
43756;SDS011;73222;41.866;12.462;2024-02-21T02:13:08;5.55;;;3.15;;
43756;SDS011;73222;41.866;12.462;2024-02-21T02:15:41;6.68;;;3.15;;
43756;SDS011;73222;41.866;12.462;2024-02-21T02:18:10;4.03;;;2.90;;
43756;SDS011;73222;41.866;12.462;2024-02-21T02:20:37;6.18;;;3.03;;
43756;SDS011;73222;41.866;12.462;2024-02-21T02:23:48;8.35;;;3.10;;
43756;SDS011;73222;41.866;12.462;2024-02-21T02:25:58;4.72;;;2.95;;
43756;SDS011;73222;41.866;12.462;2024-02-21T02:28:24;5.75;;;3.70;;
43756;SDS011;73222;41.866;12.462;2024-02-21T02:30:49;5.40;;;3.33;;
43756;SDS011;73222;41.866;12.462;2024-02-21T02:33:15;4.75;;;3.13;;
43756;SDS011;73222;41.866;12.462;2024-02-21T02:35:44;5.38;;;3.25;;
43756;SDS011;73222;41.866;12.462;2024-02-21T02:38:10;6.28;;;3.20;;
43756;SDS011;73222;41.866;12.462;2024-02-21T02:40:40;4.93;;;2.97;;
43756;SDS011;73222;41.866;12.462;2024-02-21T02:43:06;5.07;;;3.38;;
43756;SDS011;73222;41.866;12.462;2024-02-21T02:45:32;5.60;;;3.63;;
43756;SDS011;73222;41.866;12.462;2024-02-21T02:47:58;5.45;;;3.17;;
43756;SDS011;73222;41.866;12.462;2024-02-21T02:50:24;4.63;;;3.22;;
43756;SDS011;73222;41.866;12.462;2024-02-21T02:52:50;4.20;;;3.13;;
43756;SDS011;73222;41.866;12.462;2024-02-21T02:55:15;5.93;;;3.40;;
43756;SDS011;73222;41.866;12.462;2024-02-21T02:57:41;5.28;;;3.08;;
43756;SDS011;73222;41.866;12.462;2024-02-21T03:00:07;9.57;;;3.35;;
43756;SDS011;73222;41.866;12.462;2024-02-21T03:02:33;5.60;;;3.50;;
43756;SDS011;73222;41.866;12.462;2024-02-21T03:04:59;6.75;;;3.28;;
43756;SDS011;73222;41.866;12.462;2024-02-21T03:07:25;4.30;;;2.67;;
43756;SDS011;73222;41.866;12.462;2024-02-21T03:09:50;5.80;;;3.10;;
43756;SDS011;73222;41.866;12.462;2024-02-21T03:12:16;5.50;;;3.15;;
43756;SDS011;73222;41.866;12.462;2024-02-21T03:14:49;5.65;;;3.05;;
43756;SDS011;73222;41.866;12.462;2024-02-21T03:17:15;5.15;;;2.95;;
43756;SDS011;73222;41.866;12.462;2024-02-21T03:19:40;5.05;;;2.90;;
43756;SDS011;73222;41.866;12.462;2024-02-21T03:22:06;3.72;;;2.40;;
43756;SDS011;73222;41.866;12.462;2024-02-21T03:24:31;5.05;;;2.72;;
43756;SDS011;73222;41.866;12.462;2024-02-21T03:26:56;4.45;;;2.85;;
43756;SDS011;73222;41.866;12.462;2024-02-21T03:29:23;4.82;;;2.80;;
43756;SDS011;73222;41.866;12.462;2024-02-21T03:31:49;4.88;;;3.10;;
43756;SDS011;73222;41.866;12.462;2024-02-21T03:34:14;3.45;;;2.40;;
43756;SDS011;73222;41.866;12.462;2024-02-21T03:36:40;4.75;;;3.10;;
43756;SDS011;73222;41.866;12.462;2024-02-21T03:39:05;4.97;;;2.72;;
43756;SDS011;73222;41.866;12.462;2024-02-21T03:41:30;5.40;;;2.92;;
43756;SDS011;73222;41.866;12.462;2024-02-21T03:43:56;4.10;;;2.97;;
43756;SDS011;73222;41.866;12.462;2024-02-21T03:46:21;4.40;;;2.67;;
43756;SDS011;73222;41.866;12.462;2024-02-21T03:48:49;5.88;;;2.70;;
43756;SDS011;73222;41.866;12.462;2024-02-21T03:51:15;5.00;;;3.03;;
43756;SDS011;73222;41.866;12.462;2024-02-21T03:53:40;5.05;;;3.00;;
43756;SDS011;73222;41.866;12.462;2024-02-21T03:56:06;3.50;;;2.40;;
43756;SDS011;73222;41.866;12.462;2024-02-21T03:58:32;5.28;;;3.08;;
43756;SDS011;73222;41.866;12.462;2024-02-21T04:01:01;4.32;;;2.85;;
43756;SDS011;73222;41.866;12.462;2024-02-21T04:03:27;6.40;;;2.47;;
43756;SDS011;73222;41.866;12.462;2024-02-21T04:05:53;5.15;;;2.63;;
43756;SDS011;73222;41.866;12.462;2024-02-21T04:08:18;5.18;;;2.80;;
43756;SDS011;73222;41.866;12.462;2024-02-21T04:10:43;4.13;;;2.45;;
43756;SDS011;73222;41.866;12.462;2024-02-21T04:13:09;3.10;;;2.40;;
43756;SDS011;73222;41.866;12.462;2024-02-21T04:15:34;6.78;;;2.92;;
43756;SDS011;73222;41.866;12.462;2024-02-21T04:18:00;3.90;;;2.40;;
43756;SDS011;73222;41.866;12.462;2024-02-21T04:20:25;3.95;;;2.53;;
43756;SDS011;73222;41.866;12.462;2024-02-21T04:22:51;4.00;;;2.65;;
43756;SDS011;73222;41.866;12.462;2024-02-21T04:25:16;6.18;;;2.67;;
43756;SDS011;73222;41.866;12.462;2024-02-21T04:27:42;6.07;;;2.60;;
43756;SDS011;73222;41.866;12.462;2024-02-21T04:30:07;5.93;;;2.63;;
43756;SDS011;73222;41.866;12.462;2024-02-21T04:32:34;3.97;;;2.38;;
43756;SDS011;73222;41.866;12.462;2024-02-21T04:35:00;4.13;;;2.47;;
43756;SDS011;73222;41.866;12.462;2024-02-21T04:37:25;4.40;;;2.35;;
43756;SDS011;73222;41.866;12.462;2024-02-21T04:39:51;4.63;;;3.00;;
43756;SDS011;73222;41.866;12.462;2024-02-21T04:42:16;8.27;;;2.63;;
43756;SDS011;73222;41.866;12.462;2024-02-21T04:44:42;6.93;;;2.70;;
43756;SDS011;73222;41.866;12.462;2024-02-21T04:47:08;4.82;;;2.45;;
43756;SDS011;73222;41.866;12.462;2024-02-21T04:49:33;3.50;;;2.50;;
43756;SDS011;73222;41.866;12.462;2024-02-21T04:51:59;4.15;;;2.80;;
43756;SDS011;73222;41.866;12.462;2024-02-21T04:54:25;5.32;;;2.42;;
43756;SDS011;73222;41.866;12.462;2024-02-21T04:56:50;3.65;;;2.50;;
43756;SDS011;73222;41.866;12.462;2024-02-21T04:59:16;4.95;;;2.95;;
43756;SDS011;73222;41.866;12.462;2024-02-21T05:01:41;4.25;;;2.63;;
43756;SDS011;73222;41.866;12.462;2024-02-21T05:04:07;4.85;;;2.90;;
43756;SDS011;73222;41.866;12.462;2024-02-21T05:06:36;4.22;;;2.92;;
43756;SDS011;73222;41.866;12.462;2024-02-21T05:09:05;5.07;;;2.97;;
43756;SDS011;73222;41.866;12.462;2024-02-21T05:11:31;5.18;;;2.58;;
43756;SDS011;73222;41.866;12.462;2024-02-21T05:13:56;4.80;;;2.63;;
43756;SDS011;73222;41.866;12.462;2024-02-21T05:16:22;4.68;;;2.70;;
43756;SDS011;73222;41.866;12.462;2024-02-21T05:18:47;3.90;;;2.53;;
43756;SDS011;73222;41.866;12.462;2024-02-21T05:21:13;5.30;;;2.60;;
43756;SDS011;73222;41.866;12.462;2024-02-21T05:23:38;6.32;;;2.90;;
43756;SDS011;73222;41.866;12.462;2024-02-21T05:26:04;5.55;;;2.95;;
43756;SDS011;73222;41.866;12.462;2024-02-21T05:28:30;6.78;;;3.38;;
43756;SDS011;73222;41.866;12.462;2024-02-21T05:30:56;4.55;;;3.00;;
43756;SDS011;73222;41.866;12.462;2024-02-21T05:33:21;5.03;;;2.83;;
43756;SDS011;73222;41.866;12.462;2024-02-21T05:35:47;5.53;;;2.88;;
43756;SDS011;73222;41.866;12.462;2024-02-21T05:38:15;4.75;;;2.92;;
43756;SDS011;73222;41.866;12.462;2024-02-21T05:40:40;3.67;;;3.20;;
43756;SDS011;73222;41.866;12.462;2024-02-21T05:43:09;6.55;;;3.38;;
43756;SDS011;73222;41.866;12.462;2024-02-21T05:45:34;7.88;;;3.20;;
43756;SDS011;73222;41.866;12.462;2024-02-21T05:47:59;6.03;;;3.53;;
43756;SDS011;73222;41.866;12.462;2024-02-21T05:50:25;8.20;;;3.80;;
43756;SDS011;73222;41.866;12.462;2024-02-21T05:52:52;6.78;;;3.17;;
43756;SDS011;73222;41.866;12.462;2024-02-21T05:55:18;8.15;;;3.78;;
43756;SDS011;73222;41.866;12.462;2024-02-21T05:57:44;6.60;;;3.20;;
43756;SDS011;73222;41.866;12.462;2024-02-21T06:00:09;5.25;;;3.55;;
43756;SDS011;73222;41.866;12.462;2024-02-21T06:02:35;7.15;;;3.30;;
43756;SDS011;73222;41.866;12.462;2024-02-21T06:05:00;8.32;;;3.47;;
43756;SDS011;73222;41.866;12.462;2024-02-21T06:07:26;6.80;;;3.25;;
43756;SDS011;73222;41.866;12.462;2024-02-21T06:09:51;4.90;;;3.13;;
43756;SDS011;73222;41.866;12.462;2024-02-21T06:12:16;6.63;;;3.70;;
43756;SDS011;73222;41.866;12.462;2024-02-21T06:14:42;8.63;;;4.05;;
43756;SDS011;73222;41.866;12.462;2024-02-21T06:17:10;6.20;;;3.80;;
43756;SDS011;73222;41.866;12.462;2024-02-21T06:19:35;6.85;;;3.35;;
43756;SDS011;73222;41.866;12.462;2024-02-21T06:22:01;5.53;;;3.30;;
43756;SDS011;73222;41.866;12.462;2024-02-21T06:24:26;6.20;;;3.70;;
43756;SDS011;73222;41.866;12.462;2024-02-21T06:26:52;5.72;;;3.95;;
43756;SDS011;73222;41.866;12.462;2024-02-21T06:29:17;7.95;;;3.22;;
43756;SDS011;73222;41.866;12.462;2024-02-21T06:31:42;7.28;;;3.53;;
43756;SDS011;73222;41.866;12.462;2024-02-21T06:34:08;7.13;;;3.50;;
43756;SDS011;73222;41.866;12.462;2024-02-21T06:36:33;4.85;;;2.78;;
43756;SDS011;73222;41.866;12.462;2024-02-21T06:38:58;6.80;;;3.53;;
43756;SDS011;73222;41.866;12.462;2024-02-21T06:41:24;4.50;;;3.15;;
43756;SDS011;73222;41.866;12.462;2024-02-21T06:43:50;3.70;;;2.95;;
43756;SDS011;73222;41.866;12.462;2024-02-21T06:46:25;6.80;;;3.22;;
43756;SDS011;73222;41.866;12.462;2024-02-21T06:48:51;5.22;;;3.38;;
43756;SDS011;73222;41.866;12.462;2024-02-21T06:51:17;4.43;;;3.05;;
43756;SDS011;73222;41.866;12.462;2024-02-21T06:53:43;8.52;;;3.45;;
43756;SDS011;73222;41.866;12.462;2024-02-21T06:56:09;5.10;;;3.33;;
43756;SDS011;73222;41.866;12.462;2024-02-21T06:58:34;5.47;;;3.20;;
43756;SDS011;73222;41.866;12.462;2024-02-21T07:01:00;13.70;;;3.70;;
43756;SDS011;73222;41.866;12.462;2024-02-21T07:03:25;7.50;;;3.47;;
43756;SDS011;73222;41.866;12.462;2024-02-21T07:05:51;8.60;;;3.95;;
43756;SDS011;73222;41.866;12.462;2024-02-21T07:08:16;6.65;;;3.35;;
43756;SDS011;73222;41.866;12.462;2024-02-21T07:10:41;5.63;;;3.80;;
43756;SDS011;73222;41.866;12.462;2024-02-21T07:13:07;5.43;;;3.30;;
43756;SDS011;73222;41.866;12.462;2024-02-21T07:15:32;5.43;;;3.20;;
43756;SDS011;73222;41.866;12.462;2024-02-21T07:17:58;5.28;;;3.58;;
43756;SDS011;73222;41.866;12.462;2024-02-21T07:20:24;6.22;;;3.55;;
43756;SDS011;73222;41.866;12.462;2024-02-21T07:22:49;7.00;;;4.07;;
43756;SDS011;73222;41.866;12.462;2024-02-21T07:25:15;8.07;;;4.20;;
43756;SDS011;73222;41.866;12.462;2024-02-21T07:27:41;7.80;;;3.67;;
43756;SDS011;73222;41.866;12.462;2024-02-21T07:30:07;7.15;;;3.95;;
43756;SDS011;73222;41.866;12.462;2024-02-21T07:32:32;9.35;;;4.40;;
43756;SDS011;73222;41.866;12.462;2024-02-21T07:34:58;6.53;;;3.92;;
43756;SDS011;73222;41.866;12.462;2024-02-21T07:37:23;6.30;;;4.15;;
43756;SDS011;73222;41.866;12.462;2024-02-21T07:39:48;5.18;;;3.75;;
43756;SDS011;73222;41.866;12.462;2024-02-21T07:42:14;6.00;;;3.67;;
43756;SDS011;73222;41.866;12.462;2024-02-21T07:44:40;6.40;;;3.50;;
43756;SDS011;73222;41.866;12.462;2024-02-21T07:47:06;8.75;;;3.70;;
43756;SDS011;73222;41.866;12.462;2024-02-21T07:49:32;6.07;;;3.75;;
43756;SDS011;73222;41.866;12.462;2024-02-21T07:51:57;8.98;;;4.32;;
43756;SDS011;73222;41.866;12.462;2024-02-21T07:54:25;8.05;;;3.95;;
43756;SDS011;73222;41.866;12.462;2024-02-21T07:56:51;8.38;;;3.88;;
43756;SDS011;73222;41.866;12.462;2024-02-21T07:59:16;9.82;;;4.07;;
43756;SDS011;73222;41.866;12.462;2024-02-21T08:01:42;4.32;;;3.13;;
43756;SDS011;73222;41.866;12.462;2024-02-21T08:04:07;7.90;;;4.05;;
43756;SDS011;73222;41.866;12.462;2024-02-21T08:06:33;9.07;;;3.72;;
43756;SDS011;73222;41.866;12.462;2024-02-21T08:08:58;8.07;;;3.90;;
43756;SDS011;73222;41.866;12.462;2024-02-21T08:11:25;6.32;;;3.75;;
43756;SDS011;73222;41.866;12.462;2024-02-21T08:13:50;4.97;;;3.50;;
43756;SDS011;73222;41.866;12.462;2024-02-21T08:16:16;5.18;;;3.65;;
43756;SDS011;73222;41.866;12.462;2024-02-21T08:18:43;6.65;;;4.00;;
43756;SDS011;73222;41.866;12.462;2024-02-21T08:21:09;7.60;;;4.28;;
43756;SDS011;73222;41.866;12.462;2024-02-21T08:23:34;7.45;;;3.83;;
43756;SDS011;73222;41.866;12.462;2024-02-21T08:26:02;6.47;;;4.10;;
43756;SDS011;73222;41.866;12.462;2024-02-21T08:28:28;9.95;;;3.92;;
43756;SDS011;73222;41.866;12.462;2024-02-21T08:30:56;6.72;;;3.72;;
43756;SDS011;73222;41.866;12.462;2024-02-21T08:33:21;5.22;;;3.50;;
43756;SDS011;73222;41.866;12.462;2024-02-21T08:35:50;6.57;;;3.90;;
43756;SDS011;73222;41.866;12.462;2024-02-21T08:38:16;7.20;;;4.15;;
43756;SDS011;73222;41.866;12.462;2024-02-21T08:40:42;7.05;;;3.78;;
43756;SDS011;73222;41.866;12.462;2024-02-21T08:43:07;7.57;;;3.90;;
43756;SDS011;73222;41.866;12.462;2024-02-21T08:45:32;6.93;;;3.60;;
43756;SDS011;73222;41.866;12.462;2024-02-21T08:47:58;6.53;;;3.55;;
43756;SDS011;73222;41.866;12.462;2024-02-21T08:50:23;7.30;;;3.67;;
43756;SDS011;73222;41.866;12.462;2024-02-21T08:52:48;5.13;;;3.95;;
43756;SDS011;73222;41.866;12.462;2024-02-21T08:55:14;8.25;;;4.25;;
43756;SDS011;73222;41.866;12.462;2024-02-21T08:57:39;6.20;;;3.53;;
43756;SDS011;73222;41.866;12.462;2024-02-21T09:00:05;6.63;;;3.72;;
43756;SDS011;73222;41.866;12.462;2024-02-21T09:02:40;6.85;;;4.10;;
43756;SDS011;73222;41.866;12.462;2024-02-21T09:05:06;6.65;;;3.97;;
43756;SDS011;73222;41.866;12.462;2024-02-21T09:07:31;6.07;;;4.25;;
43756;SDS011;73222;41.866;12.462;2024-02-21T09:09:57;6.70;;;4.00;;
43756;SDS011;73222;41.866;12.462;2024-02-21T09:12:22;5.50;;;3.83;;
43756;SDS011;73222;41.866;12.462;2024-02-21T09:14:48;7.20;;;3.97;;
43756;SDS011;73222;41.866;12.462;2024-02-21T09:17:15;6.43;;;4.03;;
43756;SDS011;73222;41.866;12.462;2024-02-21T09:19:42;9.57;;;4.10;;
43756;SDS011;73222;41.866;12.462;2024-02-21T09:22:11;8.13;;;3.90;;
43756;SDS011;73222;41.866;12.462;2024-02-21T09:24:36;5.50;;;3.88;;
43756;SDS011;73222;41.866;12.462;2024-02-21T09:27:02;6.57;;;3.90;;
43756;SDS011;73222;41.866;12.462;2024-02-21T09:29:27;9.65;;;4.10;;
43756;SDS011;73222;41.866;12.462;2024-02-21T09:31:53;5.45;;;3.45;;
43756;SDS011;73222;41.866;12.462;2024-02-21T09:34:18;9.38;;;4.07;;
43756;SDS011;73222;41.866;12.462;2024-02-21T09:36:43;6.45;;;4.05;;
43756;SDS011;73222;41.866;12.462;2024-02-21T09:39:09;6.43;;;3.85;;
43756;SDS011;73222;41.866;12.462;2024-02-21T09:41:39;7.15;;;3.80;;
43756;SDS011;73222;41.866;12.462;2024-02-21T09:44:10;7.10;;;3.47;;
43756;SDS011;73222;41.866;12.462;2024-02-21T09:46:42;3.95;;;3.13;;
43756;SDS011;73222;41.866;12.462;2024-02-21T09:49:32;4.30;;;3.10;;
43756;SDS011;73222;41.866;12.462;2024-02-21T09:54:29;6.68;;;3.90;;
43756;SDS011;73222;41.866;12.462;2024-02-21T09:57:01;9.60;;;4.40;;
43756;SDS011;73222;41.866;12.462;2024-02-21T09:59:28;5.53;;;3.75;;
43756;SDS011;73222;41.866;12.462;2024-02-21T10:01:55;9.07;;;4.00;;
43756;SDS011;73222;41.866;12.462;2024-02-21T10:04:20;5.30;;;3.38;;
43756;SDS011;73222;41.866;12.462;2024-02-21T10:06:46;6.28;;;3.33;;
43756;SDS011;73222;41.866;12.462;2024-02-21T10:09:22;4.53;;;3.30;;
43756;SDS011;73222;41.866;12.462;2024-02-21T10:11:48;4.93;;;3.35;;
43756;SDS011;73222;41.866;12.462;2024-02-21T10:16:41;5.22;;;3.25;;
43756;SDS011;73222;41.866;12.462;2024-02-21T10:19:15;5.57;;;2.75;;
43756;SDS011;73222;41.866;12.462;2024-02-21T10:21:41;4.35;;;3.03;;
43756;SDS011;73222;41.866;12.462;2024-02-21T10:24:07;5.32;;;2.95;;
43756;SDS011;73222;41.866;12.462;2024-02-21T10:26:32;8.70;;;3.17;;
43756;SDS011;73222;41.866;12.462;2024-02-21T10:28:57;11.80;;;3.65;;
43756;SDS011;73222;41.866;12.462;2024-02-21T10:31:26;7.10;;;2.97;;
43756;SDS011;73222;41.866;12.462;2024-02-21T10:33:53;4.32;;;2.50;;
43756;SDS011;73222;41.866;12.462;2024-02-21T10:36:20;4.40;;;2.40;;
43756;SDS011;73222;41.866;12.462;2024-02-21T10:38:45;3.78;;;2.55;;
43756;SDS011;73222;41.866;12.462;2024-02-21T10:41:10;3.60;;;2.67;;
43756;SDS011;73222;41.866;12.462;2024-02-21T10:43:39;6.38;;;2.78;;
43756;SDS011;73222;41.866;12.462;2024-02-21T10:46:06;5.38;;;2.65;;
43756;SDS011;73222;41.866;12.462;2024-02-21T10:49:19;4.15;;;3.05;;
43756;SDS011;73222;41.866;12.462;2024-02-21T10:51:29;5.70;;;2.90;;
43756;SDS011;73222;41.866;12.462;2024-02-21T10:54:11;4.05;;;2.45;;
43756;SDS011;73222;41.866;12.462;2024-02-21T10:56:46;3.75;;;2.58;;
43756;SDS011;73222;41.866;12.462;2024-02-21T10:59:14;3.85;;;2.63;;
43756;SDS011;73222;41.866;12.462;2024-02-21T11:01:42;3.90;;;2.45;;
43756;SDS011;73222;41.866;12.462;2024-02-21T11:04:07;4.00;;;2.85;;
43756;SDS011;73222;41.866;12.462;2024-02-21T11:06:36;5.72;;;3.05;;
43756;SDS011;73222;41.866;12.462;2024-02-21T11:09:04;7.07;;;3.30;;
43756;SDS011;73222;41.866;12.462;2024-02-21T11:11:55;5.00;;;2.67;;
43756;SDS011;73222;41.866;12.462;2024-02-21T11:14:25;6.57;;;2.30;;
43756;SDS011;73222;41.866;12.462;2024-02-21T11:16:52;4.38;;;2.47;;
43756;SDS011;73222;41.866;12.462;2024-02-21T11:19:27;3.47;;;2.25;;
43756;SDS011;73222;41.866;12.462;2024-02-21T11:21:54;3.45;;;2.10;;
43756;SDS011;73222;41.866;12.462;2024-02-21T11:24:30;6.40;;;2.40;;
43756;SDS011;73222;41.866;12.462;2024-02-21T11:27:07;2.15;;;1.95;;
43756;SDS011;73222;41.866;12.462;2024-02-21T11:29:48;4.60;;;2.60;;
43756;SDS011;73222;41.866;12.462;2024-02-21T11:37:19;4.95;;;2.33;;
43756;SDS011;73222;41.866;12.462;2024-02-21T11:39:45;3.78;;;2.10;;
43756;SDS011;73222;41.866;12.462;2024-02-21T11:42:10;4.75;;;2.63;;
43756;SDS011;73222;41.866;12.462;2024-02-21T11:44:37;5.05;;;2.65;;
43756;SDS011;73222;41.866;12.462;2024-02-21T11:47:03;4.10;;;2.10;;
43756;SDS011;73222;41.866;12.462;2024-02-21T11:49:29;4.20;;;2.30;;
43756;SDS011;73222;41.866;12.462;2024-02-21T11:52:02;5.35;;;2.55;;
43756;SDS011;73222;41.866;12.462;2024-02-21T11:54:31;5.50;;;2.42;;
43756;SDS011;73222;41.866;12.462;2024-02-21T11:56:58;5.10;;;2.63;;
43756;SDS011;73222;41.866;12.462;2024-02-21T11:59:24;4.90;;;2.30;;
43756;SDS011;73222;41.866;12.462;2024-02-21T12:01:49;5.00;;;2.38;;
43756;SDS011;73222;41.866;12.462;2024-02-21T12:04:16;3.08;;;2.30;;
43756;SDS011;73222;41.866;12.462;2024-02-21T12:06:44;4.63;;;2.30;;
43756;SDS011;73222;41.866;12.462;2024-02-21T12:09:13;2.95;;;2.20;;
43756;SDS011;73222;41.866;12.462;2024-02-21T12:11:40;5.45;;;2.03;;
43756;SDS011;73222;41.866;12.462;2024-02-21T12:14:05;3.00;;;2.10;;
43756;SDS011;73222;41.866;12.462;2024-02-21T12:16:31;3.72;;;1.88;;
43756;SDS011;73222;41.866;12.462;2024-02-21T12:18:57;2.13;;;1.58;;
43756;SDS011;73222;41.866;12.462;2024-02-21T12:21:27;2.90;;;1.80;;
43756;SDS011;73222;41.866;12.462;2024-02-21T12:23:55;4.65;;;2.40;;
43756;SDS011;73222;41.866;12.462;2024-02-21T12:26:21;2.70;;;1.92;;
43756;SDS011;73222;41.866;12.462;2024-02-21T12:28:47;3.72;;;1.90;;
43756;SDS011;73222;41.866;12.462;2024-02-21T12:31:13;3.22;;;1.85;;
43756;SDS011;73222;41.866;12.462;2024-02-21T12:33:39;2.38;;;1.60;;
43756;SDS011;73222;41.866;12.462;2024-02-21T12:36:04;3.50;;;1.85;;
43756;SDS011;73222;41.866;12.462;2024-02-21T12:38:30;2.35;;;1.70;;
43756;SDS011;73222;41.866;12.462;2024-02-21T12:40:55;2.47;;;1.70;;
43756;SDS011;73222;41.866;12.462;2024-02-21T12:43:22;1.95;;;1.65;;
43756;SDS011;73222;41.866;12.462;2024-02-21T12:45:48;2.92;;;1.65;;
43756;SDS011;73222;41.866;12.462;2024-02-21T12:48:13;2.47;;;1.52;;
43756;SDS011;73222;41.866;12.462;2024-02-21T12:50:39;2.35;;;1.70;;
43756;SDS011;73222;41.866;12.462;2024-02-21T12:53:12;3.40;;;1.60;;
43756;SDS011;73222;41.866;12.462;2024-02-21T12:55:38;3.35;;;1.90;;
43756;SDS011;73222;41.866;12.462;2024-02-21T12:58:03;2.22;;;1.70;;
43756;SDS011;73222;41.866;12.462;2024-02-21T13:00:32;2.38;;;1.50;;
43756;SDS011;73222;41.866;12.462;2024-02-21T13:02:57;3.30;;;1.80;;
43756;SDS011;73222;41.866;12.462;2024-02-21T13:05:23;2.75;;;1.80;;
43756;SDS011;73222;41.866;12.462;2024-02-21T13:07:48;2.47;;;1.70;;
43756;SDS011;73222;41.866;12.462;2024-02-21T13:10:14;2.65;;;1.80;;
43756;SDS011;73222;41.866;12.462;2024-02-21T13:12:39;2.20;;;1.70;;
43756;SDS011;73222;41.866;12.462;2024-02-21T13:15:05;3.28;;;2.10;;
43756;SDS011;73222;41.866;12.462;2024-02-21T13:17:31;3.45;;;2.10;;
43756;SDS011;73222;41.866;12.462;2024-02-21T13:19:56;4.88;;;2.35;;
43756;SDS011;73222;41.866;12.462;2024-02-21T13:22:22;4.97;;;2.70;;
43756;SDS011;73222;41.866;12.462;2024-02-21T13:24:50;3.10;;;2.40;;
43756;SDS011;73222;41.866;12.462;2024-02-21T13:27:16;4.25;;;2.17;;
43756;SDS011;73222;41.866;12.462;2024-02-21T13:29:41;3.03;;;2.10;;
43756;SDS011;73222;41.866;12.462;2024-02-21T13:32:07;3.40;;;2.15;;
43756;SDS011;73222;41.866;12.462;2024-02-21T13:34:32;4.63;;;2.55;;
43756;SDS011;73222;41.866;12.462;2024-02-21T13:36:58;3.70;;;2.20;;
43756;SDS011;73222;41.866;12.462;2024-02-21T13:39:24;4.00;;;2.35;;
43756;SDS011;73222;41.866;12.462;2024-02-21T13:41:50;5.35;;;2.40;;
43756;SDS011;73222;41.866;12.462;2024-02-21T13:44:15;4.45;;;2.33;;
43756;SDS011;73222;41.866;12.462;2024-02-21T13:46:41;5.35;;;2.10;;
43756;SDS011;73222;41.866;12.462;2024-02-21T13:49:06;3.10;;;2.20;;
43756;SDS011;73222;41.866;12.462;2024-02-21T13:51:32;4.60;;;2.47;;
43756;SDS011;73222;41.866;12.462;2024-02-21T13:54:05;5.00;;;2.50;;
43756;SDS011;73222;41.866;12.462;2024-02-21T13:56:34;3.17;;;2.03;;
43756;SDS011;73222;41.866;12.462;2024-02-21T13:59:00;5.75;;;2.13;;
43756;SDS011;73222;41.866;12.462;2024-02-21T14:01:26;3.08;;;2.00;;
43756;SDS011;73222;41.866;12.462;2024-02-21T14:03:53;4.32;;;2.15;;
43756;SDS011;73222;41.866;12.462;2024-02-21T14:06:18;2.92;;;1.92;;
43756;SDS011;73222;41.866;12.462;2024-02-21T14:08:44;3.50;;;2.20;;
43756;SDS011;73222;41.866;12.462;2024-02-21T14:11:10;2.85;;;2.00;;
43756;SDS011;73222;41.866;12.462;2024-02-21T14:13:35;2.78;;;2.00;;
43756;SDS011;73222;41.866;12.462;2024-02-21T14:16:01;3.50;;;2.10;;
43756;SDS011;73222;41.866;12.462;2024-02-21T14:18:26;3.20;;;2.10;;
43756;SDS011;73222;41.866;12.462;2024-02-21T14:20:52;4.20;;;2.22;;
43756;SDS011;73222;41.866;12.462;2024-02-21T14:23:18;2.95;;;2.08;;
43756;SDS011;73222;41.866;12.462;2024-02-21T14:25:43;4.13;;;1.70;;
43756;SDS011;73222;41.866;12.462;2024-02-21T14:28:09;3.60;;;1.90;;
43756;SDS011;73222;41.866;12.462;2024-02-21T14:30:34;4.43;;;2.17;;
43756;SDS011;73222;41.866;12.462;2024-02-21T14:33:00;3.13;;;1.90;;
43756;SDS011;73222;41.866;12.462;2024-02-21T14:35:25;2.53;;;1.70;;
43756;SDS011;73222;41.866;12.462;2024-02-21T14:37:51;3.20;;;2.03;;
43756;SDS011;73222;41.866;12.462;2024-02-21T14:40:18;7.57;;;4.95;;